AAL2603 KJFK-KMIA
Flight info
| Callsign | AAL2603 |
|---|---|
| Flight time | N/A |
| Altitude | 36000 |
| Route | WAVEY EMJAY Q167 KALDA Q101 SKARP Y313 HOAGG BNFSH3 |
| Aircraft | A321/M-SDE3FGHIRWY/LB1 |
Departure
| Time | 2026-05-05 00:30 |
|---|---|
| Airport | John F. Kennedy International Airport (KJFK) |
Arrival
| Time | N/A |
|---|---|
| Airport | Miami International Airport (KMIA) |
| Time | Latitude | Longitude | Altitude | Speed | Heading |
|---|---|---|---|---|---|
| 2026-05-05 00:01 | 40.63903 | -73.78041 | 16 ft | 0 kts | 263° |
| 2026-05-05 00:16 | 40.63904 | -73.78038 | 16 ft | 2 kts | 263° |
| 2026-05-05 00:17 | 40.63906 | -73.78017 | 16 ft | 2 kts | 263° |
| 2026-05-05 00:17 | 40.63908 | -73.77995 | 16 ft | 2 kts | 263° |
| 2026-05-05 00:17 | 40.63910 | -73.77974 | 16 ft | 2 kts | 263° |
| 2026-05-05 00:17 | 40.63912 | -73.77953 | 19 ft | 2 kts | 243° |
| 2026-05-05 00:18 | 40.63918 | -73.77940 | 18 ft | 2 kts | 219° |
| 2026-05-05 00:18 | 40.63926 | -73.77933 | 16 ft | 0 kts | 192° |
| 2026-05-05 00:21 | 40.63908 | -73.77938 | 17 ft | 5 kts | 192° |
| 2026-05-05 00:21 | 40.63855 | -73.77935 | 16 ft | 10 kts | 167° |
| 2026-05-05 00:21 | 40.63787 | -73.77915 | 16 ft | 9 kts | 168° |
| 2026-05-05 00:22 | 40.63739 | -73.77904 | 16 ft | 6 kts | 172° |
| 2026-05-05 00:22 | 40.63686 | -73.77894 | 16 ft | 9 kts | 171° |
| 2026-05-05 00:22 | 40.63629 | -73.77886 | 16 ft | 7 kts | 174° |
| 2026-05-05 00:22 | 40.63596 | -73.77881 | 16 ft | 3 kts | 174° |
| 2026-05-05 00:23 | 40.63578 | -73.77865 | 16 ft | 5 kts | 137° |
| 2026-05-05 00:23 | 40.63551 | -73.77817 | 16 ft | 8 kts | 122° |
| 2026-05-05 00:23 | 40.63522 | -73.77741 | 16 ft | 9 kts | 103° |
| 2026-05-05 00:23 | 40.63544 | -73.77683 | 17 ft | 9 kts | 34° |
| 2026-05-05 00:24 | 40.63611 | -73.77630 | 16 ft | 12 kts | 30° |
| 2026-05-05 00:24 | 40.63672 | -73.77583 | 16 ft | 9 kts | 30° |
| 2026-05-05 00:24 | 40.63716 | -73.77550 | 16 ft | 6 kts | 30° |
| 2026-05-05 00:24 | 40.63763 | -73.77512 | 17 ft | 10 kts | 31° |
| 2026-05-05 00:25 | 40.63828 | -73.77461 | 16 ft | 11 kts | 31° |
| 2026-05-05 00:25 | 40.63892 | -73.77411 | 17 ft | 12 kts | 31° |
| 2026-05-05 00:25 | 40.64007 | -73.77322 | 16 ft | 23 kts | 31° |
| 2026-05-05 00:25 | 40.64136 | -73.77221 | 16 ft | 21 kts | 31° |
| 2026-05-05 00:26 | 40.64253 | -73.77129 | 17 ft | 19 kts | 31° |
| 2026-05-05 00:26 | 40.64359 | -73.77046 | 16 ft | 17 kts | 31° |
| 2026-05-05 00:26 | 40.64460 | -73.76993 | 16 ft | 15 kts | 8° |
| 2026-05-05 00:26 | 40.64553 | -73.76961 | 15 ft | 13 kts | 26° |
| 2026-05-05 00:27 | 40.64631 | -73.76901 | 15 ft | 12 kts | 32° |
| 2026-05-05 00:27 | 40.64700 | -73.76843 | 16 ft | 11 kts | 32° |
| 2026-05-05 00:27 | 40.64761 | -73.76792 | 16 ft | 10 kts | 32° |
| 2026-05-05 00:27 | 40.64817 | -73.76745 | 15 ft | 10 kts | 30° |
| 2026-05-05 00:28 | 40.64888 | -73.76692 | 16 ft | 13 kts | 29° |
| 2026-05-05 00:28 | 40.64966 | -73.76634 | 16 ft | 12 kts | 31° |
| 2026-05-05 00:28 | 40.65010 | -73.76565 | 16 ft | 9 kts | 95° |
| 2026-05-05 00:28 | 40.64988 | -73.76495 | 16 ft | 8 kts | 121° |
| 2026-05-05 00:29 | 40.64958 | -73.76440 | 17 ft | 7 kts | 136° |
| 2026-05-05 00:29 | 40.64891 | -73.76456 | 15 ft | 16 kts | 210° |
| 2026-05-05 00:29 | 40.64753 | -73.76561 | 15 ft | 41 kts | 210° |
| 2026-05-05 00:29 | 40.64317 | -73.76900 | 16 ft | 102 kts | 211° |
| 2026-05-05 00:30 | 40.63559 | -73.77498 | 34 ft | 147 kts | 208° |
| 2026-05-05 00:30 | 40.62644 | -73.78221 | 464 ft | 159 kts | 206° |
| 2026-05-05 00:30 | 40.61590 | -73.78793 | 904 ft | 171 kts | 194° |
| 2026-05-05 00:30 | 40.60370 | -73.78802 | 1353 ft | 189 kts | 166° |
| 2026-05-05 00:31 | 40.59181 | -73.77823 | 1619 ft | 219 kts | 147° |
| 2026-05-05 00:31 | 40.57928 | -73.76495 | 1834 ft | 243 kts | 146° |
| 2026-05-05 00:31 | 40.56578 | -73.75029 | 2296 ft | 256 kts | 145° |
| 2026-05-05 00:31 | 40.55191 | -73.73509 | 2943 ft | 263 kts | 145° |
| 2026-05-05 00:32 | 40.53771 | -73.71953 | 3629 ft | 267 kts | 145° |
| 2026-05-05 00:32 | 40.52329 | -73.70380 | 4312 ft | 271 kts | 144° |
| 2026-05-05 00:32 | 40.50888 | -73.68816 | 5004 ft | 274 kts | 145° |
| 2026-05-05 00:32 | 40.49405 | -73.67213 | 5654 ft | 278 kts | 145° |
| 2026-05-05 00:33 | 40.47895 | -73.65589 | 6288 ft | 283 kts | 144° |
| 2026-05-05 00:33 | 40.46353 | -73.63930 | 6880 ft | 288 kts | 144° |
| 2026-05-05 00:33 | 40.44789 | -73.62250 | 7482 ft | 292 kts | 144° |
| 2026-05-05 00:33 | 40.43202 | -73.60549 | 8097 ft | 297 kts | 144° |
| 2026-05-05 00:34 | 40.41590 | -73.58822 | 8699 ft | 301 kts | 144° |
| 2026-05-05 00:34 | 40.39978 | -73.57093 | 9300 ft | 305 kts | 143° |
| 2026-05-05 00:34 | 40.38326 | -73.55324 | 9899 ft | 309 kts | 143° |
| 2026-05-05 00:34 | 40.36633 | -73.53515 | 10207 ft | 323 kts | 143° |
| 2026-05-05 00:35 | 40.34833 | -73.51597 | 10341 ft | 342 kts | 143° |
| 2026-05-05 00:35 | 40.32934 | -73.49573 | 10470 ft | 360 kts | 143° |
| 2026-05-05 00:35 | 40.30946 | -73.47449 | 10635 ft | 375 kts | 143° |
| 2026-05-05 00:35 | 40.28933 | -73.45294 | 11052 ft | 381 kts | 143° |
| 2026-05-05 00:36 | 40.26864 | -73.43083 | 11573 ft | 385 kts | 143° |
| 2026-05-05 00:36 | 40.24782 | -73.40860 | 12117 ft | 387 kts | 143° |
| 2026-05-05 00:36 | 40.22669 | -73.38634 | 12657 ft | 390 kts | 145° |
| 2026-05-05 00:36 | 40.20496 | -73.36486 | 13172 ft | 392 kts | 147° |
| 2026-05-05 00:37 | 40.18299 | -73.34420 | 13679 ft | 395 kts | 148° |
| 2026-05-05 00:37 | 40.16032 | -73.32353 | 14127 ft | 398 kts | 150° |
| 2026-05-05 00:37 | 40.13574 | -73.30744 | 14551 ft | 394 kts | 165° |
| 2026-05-05 00:37 | 40.10910 | -73.30002 | 14981 ft | 390 kts | 180° |
| 2026-05-05 00:38 | 40.08223 | -73.30121 | 15411 ft | 385 kts | 194° |
| 2026-05-05 00:38 | 40.05666 | -73.31080 | 15833 ft | 380 kts | 208° |
| 2026-05-05 00:38 | 40.03399 | -73.32807 | 16246 ft | 376 kts | 222° |
| 2026-05-05 00:38 | 40.01431 | -73.34986 | 16651 ft | 377 kts | 225° |
| 2026-05-05 00:39 | 39.99437 | -73.37230 | 17046 ft | 379 kts | 224° |
| 2026-05-05 00:39 | 39.97429 | -73.39486 | 17444 ft | 382 kts | 224° |
| 2026-05-05 00:39 | 39.95407 | -73.41745 | 17816 ft | 384 kts | 224° |
| 2026-05-05 00:39 | 39.93364 | -73.44016 | 18169 ft | 387 kts | 224° |
| 2026-05-05 00:40 | 39.91313 | -73.46300 | 18509 ft | 389 kts | 224° |
| 2026-05-05 00:40 | 39.89274 | -73.48569 | 18812 ft | 391 kts | 224° |
| 2026-05-05 00:40 | 39.87202 | -73.50874 | 19122 ft | 393 kts | 224° |
| 2026-05-05 00:40 | 39.85118 | -73.53195 | 19423 ft | 395 kts | 224° |
| 2026-05-05 00:41 | 39.83022 | -73.55524 | 19738 ft | 397 kts | 224° |
| 2026-05-05 00:41 | 39.80913 | -73.57873 | 20046 ft | 399 kts | 224° |
| 2026-05-05 00:41 | 39.78795 | -73.60230 | 20371 ft | 402 kts | 224° |
| 2026-05-05 00:41 | 39.76691 | -73.62567 | 20678 ft | 404 kts | 224° |
| 2026-05-05 00:42 | 39.74544 | -73.64951 | 20993 ft | 406 kts | 224° |
| 2026-05-05 00:42 | 39.72387 | -73.67349 | 21313 ft | 409 kts | 224° |
| 2026-05-05 00:42 | 39.70221 | -73.69758 | 21639 ft | 411 kts | 224° |
| 2026-05-05 00:42 | 39.68044 | -73.72177 | 21953 ft | 413 kts | 224° |
| 2026-05-05 00:43 | 39.65848 | -73.74613 | 22290 ft | 416 kts | 224° |
| 2026-05-05 00:43 | 39.63670 | -73.77022 | 22609 ft | 418 kts | 224° |
| 2026-05-05 00:43 | 39.61445 | -73.79482 | 22933 ft | 421 kts | 224° |
| 2026-05-05 00:43 | 39.59208 | -73.81952 | 23239 ft | 423 kts | 224° |
| 2026-05-05 00:44 | 39.56954 | -73.84437 | 23552 ft | 425 kts | 224° |
| 2026-05-05 00:44 | 39.54693 | -73.86928 | 23808 ft | 428 kts | 224° |
| 2026-05-05 00:44 | 39.52445 | -73.89403 | 24068 ft | 429 kts | 224° |
| 2026-05-05 00:44 | 39.50165 | -73.91913 | 24336 ft | 431 kts | 223° |
| 2026-05-05 00:45 | 39.47870 | -73.94438 | 24606 ft | 433 kts | 223° |
| 2026-05-05 00:45 | 39.45569 | -73.96966 | 24862 ft | 435 kts | 223° |
| 2026-05-05 00:45 | 39.43253 | -73.99506 | 25119 ft | 436 kts | 223° |
| 2026-05-05 00:45 | 39.40965 | -74.02014 | 25381 ft | 438 kts | 223° |
| 2026-05-05 00:46 | 39.38630 | -74.04573 | 25645 ft | 440 kts | 223° |
| 2026-05-05 00:46 | 39.36290 | -74.07137 | 25909 ft | 442 kts | 223° |
| 2026-05-05 00:46 | 39.33940 | -74.09705 | 26161 ft | 443 kts | 223° |
| 2026-05-05 00:46 | 39.31583 | -74.12276 | 26420 ft | 445 kts | 223° |
| 2026-05-05 00:47 | 39.29235 | -74.14832 | 26674 ft | 446 kts | 223° |
| 2026-05-05 00:47 | 39.26855 | -74.17420 | 26914 ft | 448 kts | 223° |
| 2026-05-05 00:47 | 39.24469 | -74.20011 | 27156 ft | 449 kts | 223° |
| 2026-05-05 00:47 | 39.22072 | -74.22610 | 27387 ft | 451 kts | 223° |
| 2026-05-05 00:48 | 39.19672 | -74.25217 | 27597 ft | 452 kts | 223° |
| 2026-05-05 00:48 | 39.17259 | -74.27843 | 27816 ft | 453 kts | 223° |
| 2026-05-05 00:48 | 39.14850 | -74.30463 | 28008 ft | 454 kts | 223° |
| 2026-05-05 00:48 | 39.12428 | -74.33095 | 28200 ft | 456 kts | 223° |
| 2026-05-05 00:49 | 39.09998 | -74.35729 | 28382 ft | 457 kts | 223° |
| 2026-05-05 00:49 | 39.07591 | -74.38329 | 28599 ft | 456 kts | 223° |
| 2026-05-05 00:49 | 39.05160 | -74.40950 | 28856 ft | 456 kts | 223° |
| 2026-05-05 00:49 | 39.02727 | -74.43571 | 29101 ft | 455 kts | 223° |
| 2026-05-05 00:50 | 39.00303 | -74.46180 | 29352 ft | 454 kts | 223° |
| 2026-05-05 00:50 | 38.97881 | -74.48786 | 29588 ft | 454 kts | 222° |
| 2026-05-05 00:50 | 38.95462 | -74.51387 | 29826 ft | 453 kts | 222° |
| 2026-05-05 00:50 | 38.93051 | -74.53993 | 30046 ft | 452 kts | 223° |
| 2026-05-05 00:51 | 38.90719 | -74.56627 | 30246 ft | 451 kts | 224° |
| 2026-05-05 00:51 | 38.88402 | -74.59347 | 30449 ft | 450 kts | 225° |
| 2026-05-05 00:51 | 38.86116 | -74.62085 | 30665 ft | 449 kts | 225° |
| 2026-05-05 00:51 | 38.83838 | -74.64822 | 30885 ft | 448 kts | 225° |
| 2026-05-05 00:52 | 38.81553 | -74.67548 | 31102 ft | 447 kts | 225° |
| 2026-05-05 00:52 | 38.79269 | -74.70243 | 31314 ft | 446 kts | 225° |
| 2026-05-05 00:52 | 38.76977 | -74.72924 | 31531 ft | 445 kts | 225° |
| 2026-05-05 00:52 | 38.74709 | -74.75552 | 31740 ft | 445 kts | 224° |
| 2026-05-05 00:53 | 38.72367 | -74.78137 | 31954 ft | 444 kts | 222° |
| 2026-05-05 00:53 | 38.69968 | -74.80654 | 32165 ft | 444 kts | 221° |
| 2026-05-05 00:53 | 38.67543 | -74.83120 | 32377 ft | 443 kts | 220° |
| 2026-05-05 00:53 | 38.65121 | -74.85558 | 32588 ft | 443 kts | 221° |
| 2026-05-05 00:54 | 38.62737 | -74.87971 | 32802 ft | 442 kts | 221° |
| 2026-05-05 00:54 | 38.60344 | -74.90424 | 33013 ft | 440 kts | 221° |
| 2026-05-05 00:54 | 38.57964 | -74.92890 | 33226 ft | 439 kts | 221° |
| 2026-05-05 00:54 | 38.55594 | -74.95357 | 33420 ft | 439 kts | 222° |
| 2026-05-05 00:55 | 38.53223 | -74.97827 | 33637 ft | 438 kts | 221° |
| 2026-05-05 00:55 | 38.50882 | -75.00312 | 33824 ft | 437 kts | 223° |
| 2026-05-05 00:55 | 38.48609 | -75.02814 | 33976 ft | 437 kts | 224° |
| 2026-05-05 00:56 | 38.43945 | -75.07881 | 34010 ft | 444 kts | 221° |
| 2026-05-05 00:56 | 38.38994 | -75.12636 | 34002 ft | 446 kts | 218° |
| 2026-05-05 00:57 | 38.33947 | -75.17258 | 34012 ft | 446 kts | 218° |
| 2026-05-05 00:57 | 38.28975 | -75.21882 | 34004 ft | 445 kts | 219° |
| 2026-05-05 00:58 | 38.24002 | -75.26600 | 34003 ft | 445 kts | 219° |
| 2026-05-05 00:58 | 38.19073 | -75.31289 | 34005 ft | 445 kts | 219° |
| 2026-05-05 00:59 | 38.14098 | -75.35993 | 34003 ft | 445 kts | 219° |
| 2026-05-05 00:59 | 38.09112 | -75.40679 | 34010 ft | 446 kts | 219° |
| 2026-05-05 01:00 | 38.04146 | -75.45323 | 34012 ft | 446 kts | 219° |
| 2026-05-05 01:00 | 37.99049 | -75.49830 | 34012 ft | 447 kts | 217° |
| 2026-05-05 01:01 | 37.93896 | -75.54255 | 34012 ft | 447 kts | 217° |
| 2026-05-05 01:01 | 37.88778 | -75.58638 | 34012 ft | 447 kts | 214° |
| 2026-05-05 01:02 | 37.82974 | -75.61608 | 34006 ft | 456 kts | 194° |
| 2026-05-05 01:02 | 37.76593 | -75.61863 | 33993 ft | 463 kts | 178° |
| 2026-05-05 01:03 | 37.70205 | -75.61201 | 33989 ft | 462 kts | 182° |
| 2026-05-05 01:03 | 37.63877 | -75.62039 | 34000 ft | 455 kts | 194° |
| 2026-05-05 01:04 | 37.57629 | -75.63422 | 33998 ft | 455 kts | 193° |
| 2026-05-05 01:04 | 37.48303 | -75.65407 | 34005 ft | 454 kts | 193° |
| 2026-05-05 01:05 | 37.42071 | -75.66741 | 34023 ft | 453 kts | 194° |
| 2026-05-05 01:05 | 37.35904 | -75.68072 | 34032 ft | 451 kts | 194° |
| 2026-05-05 01:06 | 37.29720 | -75.69409 | 34037 ft | 450 kts | 195° |
| 2026-05-05 01:06 | 37.23561 | -75.70734 | 34044 ft | 448 kts | 195° |
| 2026-05-05 01:07 | 37.17466 | -75.72036 | 34043 ft | 446 kts | 195° |
| 2026-05-05 01:07 | 37.11351 | -75.73341 | 34045 ft | 445 kts | 195° |
| 2026-05-05 01:08 | 37.05369 | -75.75076 | 34048 ft | 435 kts | 207° |
| 2026-05-05 01:08 | 37.00088 | -75.78474 | 34044 ft | 428 kts | 214° |
| 2026-05-05 01:09 | 36.94879 | -75.82100 | 34039 ft | 428 kts | 214° |
| 2026-05-05 01:09 | 36.89679 | -75.85693 | 34036 ft | 427 kts | 214° |
| 2026-05-05 01:10 | 36.84495 | -75.89277 | 34048 ft | 427 kts | 214° |
| 2026-05-05 01:10 | 36.79303 | -75.92863 | 34043 ft | 426 kts | 214° |
| 2026-05-05 01:11 | 36.74117 | -75.96437 | 34039 ft | 425 kts | 214° |
| 2026-05-05 01:11 | 36.68958 | -75.99983 | 34038 ft | 425 kts | 214° |
| 2026-05-05 01:12 | 36.63773 | -76.03538 | 34029 ft | 425 kts | 214° |
| 2026-05-05 01:12 | 36.58622 | -76.07082 | 34028 ft | 425 kts | 214° |
| 2026-05-05 01:13 | 36.53439 | -76.10650 | 34026 ft | 425 kts | 214° |
| 2026-05-05 01:13 | 36.48258 | -76.14202 | 34055 ft | 425 kts | 214° |
| 2026-05-05 01:14 | 36.43091 | -76.17726 | 34052 ft | 426 kts | 214° |
| 2026-05-05 01:14 | 36.37897 | -76.21268 | 34055 ft | 426 kts | 214° |
| 2026-05-05 01:15 | 36.32686 | -76.24825 | 34058 ft | 426 kts | 214° |
| 2026-05-05 01:15 | 36.27508 | -76.28348 | 34057 ft | 427 kts | 214° |
| 2026-05-05 01:16 | 36.22295 | -76.31890 | 34059 ft | 427 kts | 214° |
| 2026-05-05 01:16 | 36.17111 | -76.35401 | 34055 ft | 427 kts | 214° |
| 2026-05-05 01:17 | 36.11885 | -76.38941 | 34067 ft | 428 kts | 214° |
| 2026-05-05 01:17 | 36.06657 | -76.42473 | 34074 ft | 428 kts | 214° |
| 2026-05-05 01:18 | 36.01418 | -76.46007 | 34076 ft | 428 kts | 214° |
| 2026-05-05 01:18 | 35.96216 | -76.49506 | 34072 ft | 429 kts | 214° |
| 2026-05-05 01:19 | 35.90972 | -76.53035 | 34059 ft | 429 kts | 214° |
| 2026-05-05 01:19 | 35.85679 | -76.56493 | 34057 ft | 431 kts | 212° |
| 2026-05-05 01:20 | 35.80328 | -76.59762 | 34054 ft | 432 kts | 212° |
| 2026-05-05 01:20 | 35.74916 | -76.63039 | 34053 ft | 433 kts | 212° |
| 2026-05-05 01:21 | 35.69512 | -76.66341 | 34058 ft | 433 kts | 212° |
| 2026-05-05 01:21 | 35.64157 | -76.69633 | 34067 ft | 434 kts | 212° |
| 2026-05-05 01:22 | 35.58754 | -76.72961 | 34079 ft | 434 kts | 212° |
| 2026-05-05 01:22 | 35.53348 | -76.76283 | 34078 ft | 434 kts | 212° |
| 2026-05-05 01:23 | 35.47976 | -76.79580 | 34086 ft | 434 kts | 212° |
| 2026-05-05 01:23 | 35.42568 | -76.82885 | 34082 ft | 434 kts | 212° |
| 2026-05-05 01:24 | 35.37146 | -76.86179 | 34083 ft | 434 kts | 212° |
| 2026-05-05 01:24 | 35.31761 | -76.89454 | 34084 ft | 434 kts | 212° |
| 2026-05-05 01:25 | 35.26341 | -76.92756 | 34092 ft | 435 kts | 212° |
| 2026-05-05 01:25 | 35.20948 | -76.96060 | 34102 ft | 434 kts | 212° |
| 2026-05-05 01:26 | 35.15567 | -76.99445 | 34109 ft | 434 kts | 213° |
| 2026-05-05 01:26 | 35.10232 | -77.02812 | 34112 ft | 434 kts | 212° |
| 2026-05-05 01:27 | 35.04847 | -77.06187 | 34108 ft | 434 kts | 212° |
| 2026-05-05 01:27 | 34.99468 | -77.09548 | 34111 ft | 434 kts | 212° |
| 2026-05-05 01:28 | 34.94080 | -77.12896 | 34106 ft | 435 kts | 212° |
| 2026-05-05 01:28 | 34.88729 | -77.16218 | 34102 ft | 434 kts | 212° |
| 2026-05-05 01:29 | 34.83340 | -77.19573 | 34106 ft | 434 kts | 212° |
| 2026-05-05 01:29 | 34.77952 | -77.22926 | 34104 ft | 435 kts | 212° |
| 2026-05-05 01:30 | 34.72588 | -77.26247 | 34098 ft | 435 kts | 212° |
| 2026-05-05 01:30 | 34.67182 | -77.29585 | 34105 ft | 435 kts | 212° |
| 2026-05-05 01:31 | 34.61779 | -77.32928 | 34105 ft | 436 kts | 212° |
| 2026-05-05 01:31 | 34.56408 | -77.36251 | 34112 ft | 436 kts | 212° |
| 2026-05-05 01:32 | 34.51001 | -77.39580 | 34112 ft | 436 kts | 211° |
| 2026-05-05 01:32 | 34.45127 | -77.41735 | 34110 ft | 449 kts | 194° |
| 2026-05-05 01:33 | 34.38995 | -77.42908 | 34108 ft | 448 kts | 195° |
| 2026-05-05 01:33 | 34.32838 | -77.44124 | 34104 ft | 448 kts | 195° |
| 2026-05-05 01:34 | 34.26687 | -77.45340 | 34104 ft | 448 kts | 195° |
| 2026-05-05 01:34 | 34.20535 | -77.46550 | 34107 ft | 448 kts | 195° |
| 2026-05-05 01:35 | 34.14421 | -77.47734 | 34112 ft | 448 kts | 195° |
| 2026-05-05 01:35 | 34.08261 | -77.48925 | 34118 ft | 448 kts | 195° |
| 2026-05-05 01:36 | 34.02105 | -77.50120 | 34122 ft | 448 kts | 195° |
| 2026-05-05 01:36 | 33.95989 | -77.51305 | 34124 ft | 447 kts | 195° |
| 2026-05-05 01:37 | 33.89830 | -77.52498 | 34127 ft | 447 kts | 195° |
| 2026-05-05 01:37 | 33.83726 | -77.53686 | 34131 ft | 447 kts | 195° |
| 2026-05-05 01:38 | 33.77584 | -77.54872 | 34133 ft | 446 kts | 195° |
| 2026-05-05 01:38 | 33.71447 | -77.56053 | 34125 ft | 446 kts | 195° |
| 2026-05-05 01:39 | 33.65351 | -77.57224 | 34130 ft | 446 kts | 195° |
| 2026-05-05 01:39 | 33.59218 | -77.58408 | 34123 ft | 445 kts | 195° |
| 2026-05-05 01:40 | 33.53321 | -77.60280 | 34120 ft | 440 kts | 202° |
| 2026-05-05 01:40 | 33.47438 | -77.62342 | 34121 ft | 440 kts | 202° |
| 2026-05-05 01:41 | 33.41565 | -77.64400 | 34125 ft | 440 kts | 202° |
| 2026-05-05 01:41 | 33.35718 | -77.66439 | 34132 ft | 440 kts | 202° |
| 2026-05-05 01:42 | 33.29833 | -77.68493 | 34136 ft | 440 kts | 201° |
| 2026-05-05 01:42 | 33.23948 | -77.70539 | 34139 ft | 440 kts | 201° |
| 2026-05-05 01:43 | 33.18104 | -77.72575 | 34139 ft | 440 kts | 201° |
| 2026-05-05 01:43 | 33.12223 | -77.74617 | 34137 ft | 440 kts | 201° |
| 2026-05-05 01:44 | 33.06334 | -77.76663 | 34140 ft | 441 kts | 201° |
| 2026-05-05 01:44 | 33.00447 | -77.78712 | 34138 ft | 441 kts | 201° |
| 2026-05-05 01:45 | 32.94585 | -77.80733 | 34140 ft | 441 kts | 201° |
| 2026-05-05 01:45 | 32.88691 | -77.82763 | 34136 ft | 441 kts | 201° |
| 2026-05-05 01:46 | 32.82791 | -77.84796 | 34138 ft | 441 kts | 201° |
| 2026-05-05 01:46 | 32.77886 | -77.86485 | 34142 ft | 441 kts | 201° |
| 2026-05-05 01:47 | 32.71032 | -77.88851 | 34153 ft | 441 kts | 201° |
| 2026-05-05 01:47 | 32.66097 | -77.90546 | 34152 ft | 441 kts | 201° |
| 2026-05-05 01:48 | 32.60220 | -77.92480 | 34151 ft | 441 kts | 200° |
| 2026-05-05 01:48 | 32.54283 | -77.94380 | 34153 ft | 441 kts | 200° |
| 2026-05-05 01:49 | 32.48363 | -77.96280 | 34148 ft | 441 kts | 201° |
| 2026-05-05 01:49 | 32.42452 | -77.98194 | 34150 ft | 440 kts | 201° |
| 2026-05-05 01:50 | 32.36583 | -78.00094 | 34153 ft | 439 kts | 201° |
| 2026-05-05 01:50 | 32.30684 | -78.02007 | 34154 ft | 439 kts | 201° |
| 2026-05-05 01:51 | 32.24795 | -78.03897 | 34153 ft | 438 kts | 201° |
| 2026-05-05 01:51 | 32.18910 | -78.05782 | 34153 ft | 437 kts | 201° |
| 2026-05-05 01:52 | 32.13041 | -78.07666 | 34157 ft | 436 kts | 201° |
| 2026-05-05 01:52 | 32.07225 | -78.09535 | 34157 ft | 435 kts | 201° |
| 2026-05-05 01:53 | 32.01379 | -78.11413 | 34156 ft | 434 kts | 201° |
| 2026-05-05 01:53 | 31.95547 | -78.13285 | 34153 ft | 433 kts | 201° |
| 2026-05-05 01:54 | 31.89727 | -78.15138 | 34158 ft | 432 kts | 201° |
| 2026-05-05 01:54 | 31.83958 | -78.16979 | 34156 ft | 431 kts | 202° |
| 2026-05-05 01:55 | 31.78168 | -78.18831 | 34153 ft | 431 kts | 202° |
| 2026-05-05 01:55 | 31.72377 | -78.20681 | 34154 ft | 431 kts | 202° |
| 2026-05-05 01:56 | 31.66628 | -78.22510 | 34151 ft | 430 kts | 202° |
| 2026-05-05 01:56 | 31.60839 | -78.24347 | 34153 ft | 430 kts | 202° |
| 2026-05-05 01:57 | 31.55057 | -78.26179 | 34149 ft | 430 kts | 202° |
| 2026-05-05 01:57 | 31.49317 | -78.28001 | 34150 ft | 429 kts | 202° |
| 2026-05-05 01:58 | 31.43553 | -78.29848 | 34150 ft | 428 kts | 203° |
| 2026-05-05 01:58 | 31.37824 | -78.31773 | 34150 ft | 427 kts | 204° |
| 2026-05-05 01:59 | 31.32150 | -78.33701 | 34144 ft | 427 kts | 204° |
| 2026-05-05 01:59 | 31.26443 | -78.35622 | 34141 ft | 427 kts | 204° |
| 2026-05-05 02:00 | 31.20728 | -78.37536 | 34147 ft | 427 kts | 203° |
| 2026-05-05 02:00 | 31.15008 | -78.39432 | 34145 ft | 427 kts | 203° |
| 2026-05-05 02:01 | 31.09288 | -78.41330 | 34151 ft | 427 kts | 203° |
| 2026-05-05 02:01 | 31.03613 | -78.43223 | 34139 ft | 427 kts | 204° |
| 2026-05-05 02:02 | 30.97894 | -78.45123 | 34138 ft | 427 kts | 203° |
| 2026-05-05 02:02 | 30.92178 | -78.47017 | 34131 ft | 427 kts | 203° |
| 2026-05-05 02:03 | 30.86500 | -78.48898 | 34125 ft | 427 kts | 203° |
| 2026-05-05 02:03 | 30.80784 | -78.50791 | 34114 ft | 427 kts | 203° |
| 2026-05-05 02:04 | 30.75065 | -78.52677 | 34120 ft | 427 kts | 203° |
| 2026-05-05 02:04 | 30.69381 | -78.54557 | 34117 ft | 427 kts | 203° |
| 2026-05-05 02:05 | 30.63658 | -78.56451 | 34116 ft | 428 kts | 203° |
| 2026-05-05 02:05 | 30.57923 | -78.58346 | 34112 ft | 428 kts | 203° |
| 2026-05-05 02:06 | 30.52217 | -78.60212 | 34115 ft | 429 kts | 203° |
| 2026-05-05 02:06 | 30.46460 | -78.62096 | 34109 ft | 429 kts | 203° |
| 2026-05-05 02:07 | 30.40708 | -78.63986 | 34112 ft | 430 kts | 203° |
| 2026-05-05 02:07 | 30.34985 | -78.65871 | 34117 ft | 430 kts | 203° |
| 2026-05-05 02:08 | 30.29219 | -78.67764 | 34111 ft | 430 kts | 203° |
| 2026-05-05 02:08 | 30.23440 | -78.69643 | 34110 ft | 431 kts | 203° |
| 2026-05-05 02:09 | 30.17696 | -78.71507 | 34111 ft | 431 kts | 203° |
| 2026-05-05 02:09 | 30.11912 | -78.73399 | 34111 ft | 432 kts | 203° |
| 2026-05-05 02:10 | 30.06160 | -78.75279 | 34112 ft | 432 kts | 203° |
| 2026-05-05 02:10 | 30.00352 | -78.77171 | 34107 ft | 433 kts | 203° |
| 2026-05-05 02:11 | 29.94543 | -78.79054 | 34105 ft | 434 kts | 203° |
| 2026-05-05 02:11 | 29.88752 | -78.80933 | 34103 ft | 435 kts | 203° |
| 2026-05-05 02:12 | 29.79992 | -78.83768 | 34107 ft | 436 kts | 202° |
| 2026-05-05 02:13 | 29.73910 | -78.84897 | 34102 ft | 446 kts | 194° |
| 2026-05-05 02:13 | 29.67772 | -78.85720 | 34104 ft | 447 kts | 194° |
| 2026-05-05 02:14 | 29.61580 | -78.86552 | 34103 ft | 447 kts | 194° |
| 2026-05-05 02:14 | 29.55430 | -78.87376 | 34107 ft | 448 kts | 194° |
| 2026-05-05 02:15 | 29.49226 | -78.88210 | 34106 ft | 449 kts | 194° |
| 2026-05-05 02:15 | 29.43014 | -78.89045 | 34108 ft | 449 kts | 194° |
| 2026-05-05 02:16 | 29.36830 | -78.89873 | 34110 ft | 450 kts | 194° |
| 2026-05-05 02:16 | 29.30602 | -78.90712 | 34114 ft | 451 kts | 194° |
| 2026-05-05 02:17 | 29.24362 | -78.91549 | 34113 ft | 451 kts | 194° |
| 2026-05-05 02:17 | 29.18159 | -78.92382 | 34110 ft | 452 kts | 194° |